METAR Data
IDs: Format: Raw Decoded Include TAF

Data at: 1441 UTC 21 May 2019

KBNW 211435Z AUTO 10021G27KT 10SM OVC011 08/08 A2992 RMK AO2
KBNW 211415Z AUTO 10025G30KT 10SM OVC012 08/08 A2993 RMK AO2
KBNW 211355Z AUTO 10023G31KT 10SM OVC014 08/08 A2992 RMK AO2
KBNW 211335Z AUTO 11024KT 10SM OVC012 08/08 A2991 RMK AO2
KBNW 211315Z AUTO 10021G28KT 10SM BKN014 OVC028 08/08 A2991 RMK AO2
KBNW 211255Z AUTO 10021G34KT 10SM BKN015 OVC029 08/08 A2992 RMK AO2
KBNW 211235Z AUTO 12026G35KT 10SM BKN012 BKN018 OVC030 08/08 A2994 RMK AO2
KBNW 211215Z AUTO 11020G34KT 9SM BKN010 OVC017 08/08 A2994 RMK AO2
KBNW 211155Z AUTO 11024G32KT 4SM BR BKN009 BKN013 OVC046 08/08 A2993 RMK AO2 P0002
KBNW 211135Z AUTO 10021G29KT 2SM BR OVC009 08/08 A2992 RMK AO2
KBNW 211115Z AUTO 11021KT 1 1/2SM -RA OVC008 08/08 A2994 RMK AO2
KBNW 211055Z AUTO 11019G25KT 3SM -RA BKN009 OVC013 08/08 A2996 RMK AO2 P0004
KBNW 211035Z AUTO 10017KT 3SM BR BKN010 OVC014 08/08 A2996 RMK AO2
KBNW 211015Z AUTO 11019KT 4SM BR SCT014 OVC019 08/08 A2995 RMK AO2
KBNW 210955Z AUTO 10019G24KT 3SM -RA SCT016 BKN020 OVC030 08/08 A2995 RMK AO2 P0003
KBNW 210935Z AUTO 11019G26KT 6SM BR SCT019 BKN027 OVC050 09/09 A2995 RMK AO2
KBNW 210915Z AUTO 09013G20KT 8SM FEW021 SCT055 OVC075 09/09 A2996 RMK AO2
KBNW 210855Z AUTO 11016G22KT 9SM SCT024 SCT045 OVC070 09/09 A2996 RMK AO2
KBNW 210835Z AUTO 10019G26KT 6SM BR FEW023 SCT034 BKN041 09/09 A2996 RMK AO2
KBNW 210815Z AUTO 10017G24KT 10SM FEW021 SCT035 BKN050 10/08 A2996 RMK AO2
KBNW 210755Z AUTO 10018G25KT 10SM OVC065 10/09 A2996 RMK AO2
KBNW 210735Z AUTO 10020G25KT 10SM FEW038 SCT055 OVC065 10/08 A2995 RMK AO2
KBNW 210715Z AUTO 10017G25KT 10SM SCT038 BKN047 OVC065 10/09 A2996 RMK AO2
KBNW 210655Z AUTO 10016G22KT 10SM FEW041 BKN060 OVC075 10/09 A2997 RMK AO2
KBNW 210635Z AUTO 10016KT 10SM BKN055 BKN065 OVC075 10/09 A2998 RMK AO2
KBNW 210615Z AUTO 11016KT 10SM FEW020 OVC055 10/09 A3000 RMK AO2
KBNW 210555Z AUTO 12014KT 10SM FEW022 OVC065 10/10 A3001 RMK AO2
KBNW 210535Z AUTO 10012G18KT 10SM SCT024 OVC070 11/09 A3000 RMK AO2
KBNW 210515Z AUTO 10015G22KT 10SM FEW023 FEW027 OVC070 11/09 A3000 RMK AO2
KBNW 210455Z AUTO 10014KT 10SM FEW024 SCT055 BKN070 11/09 A3001 RMK AO2
KBNW 210435Z AUTO 11013KT 10SM OVC075 11/08 A3001 RMK AO2
KBNW 210415Z AUTO 10010KT 10SM OVC075 11/09 A3001 RMK AO2
KBNW 210355Z AUTO 10010G16KT 10SM OVC075 11/08 A3001 RMK AO2
KBNW 210335Z AUTO 10013KT 10SM OVC075 11/08 A2999 RMK AO2
KBNW 210315Z AUTO 10010KT 10SM SCT070 OVC090 11/08 A3002 RMK AO2
KBNW 210255Z AUTO 10009KT 10SM FEW075 OVC100 11/08 A3002 RMK AO2
KBNW 210235Z AUTO 11008KT 10SM OVC100 11/09 A3003 RMK AO2
KBNW 210215Z AUTO 12010KT 10SM OVC110 11/08 A3003 RMK AO2
KBNW 210155Z AUTO 11010KT 10SM OVC120 12/08 A3003 RMK AO2
KBNW 210135Z AUTO 13008KT 10SM BKN120 12/08 A3006 RMK AO2
KBNW 210115Z AUTO 12008KT 10SM FEW120 12/08 A3005 RMK AO2
KBNW 210055Z AUTO 11008KT 10SM CLR 12/07 A3005 RMK AO2
KBNW 210035Z AUTO 10009KT 10SM CLR 12/07 A3005 RMK AO2
KBNW 210015Z AUTO 09008KT 10SM CLR 13/06 A3005 RMK AO2
KBNW 202355Z AUTO 10007KT 10SM SCT095 13/06 A3007 RMK AO2
KBNW 202335Z AUTO 09010KT 10SM SCT095 13/05 A3007 RMK AO2
KBNW 202315Z AUTO 10008KT 10SM CLR 13/06 A3008 RMK AO2
KBNW 202255Z AUTO 08009KT 10SM CLR 13/06 A3007 RMK AO2
KBNW 202235Z AUTO 09011KT 10SM CLR 13/06 A3008 RMK AO2
KBNW 202215Z AUTO 09008KT 10SM CLR 13/06 A3009 RMK AO2
KBNW 202155Z AUTO 10009KT 10SM FEW042 13/05 A3010 RMK AO2
KBNW 202135Z AUTO 08008KT 10SM SCT042 13/05 A3011 RMK AO2
KBNW 202115Z AUTO 06007KT 10SM SCT041 13/05 A3011 RMK AO2
KBNW 202055Z AUTO 07009KT 10SM FEW041 13/05 A3010 RMK AO2
KBNW 202035Z AUTO 07009KT 10SM SCT041 14/05 A3011 RMK AO2
KBNW 202015Z AUTO 07007G13KT 10SM BKN041 13/05 A3012 RMK AO2
KBNW 201955Z AUTO 06007KT 10SM BKN041 13/05 A3013 RMK AO2
KBNW 201935Z AUTO 09009KT 10SM SCT040 13/05 A3014 RMK AO2
KBNW 201915Z AUTO 05009KT 10SM BKN039 13/06 A3013 RMK AO2
KBNW 201855Z AUTO 08008G13KT 10SM SCT037 13/05 A3013 RMK AO2
KBNW 201835Z AUTO 07010G17KT 10SM BKN036 12/05 A3014 RMK AO2
KBNW 201815Z AUTO 04013KT 10SM BKN035 12/05 A3012 RMK AO2
KBNW 201755Z AUTO 06012KT 10SM BKN035 12/05 A3013 RMK AO2
KBNW 201735Z AUTO 03012KT 10SM BKN033 12/05 A3014 RMK AO2
KBNW 201715Z AUTO 06012KT 10SM BKN032 11/05 A3016 RMK AO2
KBNW 201655Z AUTO 06007G15KT 10SM BKN033 11/06 A3017 RMK AO2
KBNW 201635Z AUTO 06012KT 10SM SCT027 10/05 A3017 RMK AO2
KBNW 201615Z AUTO 07014KT 10SM BKN023 BKN029 10/06 A3016 RMK AO2
KBNW 201555Z AUTO 04011G17KT 10SM BKN022 09/06 A3016 RMK AO2
KBNW 201535Z AUTO 05015G21KT 10SM BKN020 09/06 A3016 RMK AO2
KBNW 201515Z AUTO 05014KT 10SM BKN020 08/06 A3017 RMK AO2
KBNW 201455Z AUTO 03015KT 10SM OVC019 07/06 A3016 RMK AO2
KBNW 201435Z AUTO 04013G20KT 10SM OVC017 07/06 A3017 RMK AO2
KBNW 201415Z AUTO 03016KT 10SM OVC016 07/06 A3015 RMK AO2
KBNW 201355Z AUTO 02017KT 10SM OVC014 06/06 A3014 RMK AO2
KBNW 201335Z AUTO 36010G15KT 10SM OVC014 06/05 A3015 RMK AO2
KBNW 201315Z AUTO 36011G17KT 10SM OVC015 06/05 A3014 RMK AO2
KBNW 201255Z AUTO 01015KT 10SM OVC013 06/05 A3011 RMK AO2
KBNW 201235Z AUTO 36013KT 10SM OVC015 05/05 A3012 RMK AO2
KBNW 201215Z AUTO 01009G15KT 10SM OVC017 05/05 A3011 RMK AO2
KBNW 201155Z AUTO 36011G17KT 10SM OVC016 05/05 A3012 RMK AO2
KBNW 201135Z AUTO 35008G15KT 10SM OVC017 05/04 A3011 RMK AO2
KBNW 201115Z AUTO 33008KT 10SM OVC018 04/04 A3011 RMK AO2
KBNW 201055Z AUTO 34007KT 10SM OVC019 04/04 A3010 RMK AO2
KBNW 201035Z AUTO 36006KT 10SM OVC020 05/04 A3009 RMK AO2
KBNW 201015Z AUTO 01009KT 10SM OVC020 05/04 A3009 RMK AO2
KBNW 200955Z AUTO 35009KT 10SM OVC018 05/04 A3009 RMK AO2
KBNW 200935Z AUTO 35012KT 10SM OVC018 05/04 A3008 RMK AO2
KBNW 200915Z AUTO 34010KT 10SM OVC016 05/04 A3007 RMK AO2
KBNW 200855Z AUTO 34011KT 10SM OVC017 05/04 A3006 RMK AO2
KBNW 200835Z AUTO 35009G16KT 10SM OVC019 05/04 A3006 RMK AO2
KBNW 200815Z AUTO 36011KT 10SM OVC018 05/04 A3005 RMK AO2
KBNW 200755Z AUTO 36014G20KT 10SM OVC016 05/04 A3004 RMK AO2
KBNW 200735Z AUTO 35013KT 10SM OVC016 05/04 A3005 RMK AO2
KBNW 200715Z AUTO 34014KT 10SM OVC021 05/04 A3005 RMK AO2
KBNW 200655Z AUTO 35014KT 10SM SCT018 OVC023 05/04 A3005 RMK AO2
KBNW 200635Z AUTO 34014KT 10SM BKN015 BKN019 OVC023 05/05 A3005 RMK AO2
KBNW 200615Z AUTO 34012G18KT 10SM BKN014 BKN018 OVC025 05/05 A3004 RMK AO2
KBNW 200555Z AUTO 34014G22KT 10SM BKN018 OVC024 05/05 A3004 RMK AO2
KBNW 200535Z AUTO 35013G19KT 10SM OVC016 06/05 A3003 RMK AO2
KBNW 200515Z AUTO 34015G20KT 10SM OVC015 06/06 A3002 RMK AO2
KBNW 200455Z AUTO 35015KT 10SM BKN010 OVC015 06/06 A3001 RMK AO2
KBNW 200435Z AUTO 35013KT 10SM BKN015 OVC021 07/07 A3000 RMK AO2
KBNW 200415Z AUTO 34012G20KT 10SM OVC016 07/07 A2999 RMK AO2
KBNW 200355Z AUTO 34011G19KT 10SM OVC015 07/07 A2998 RMK AO2
KBNW 200335Z AUTO 34012KT 10SM BKN013 BKN017 OVC034 08/08 A2997 RMK AO2
KBNW 200315Z AUTO 32009G17KT 10SM FEW009 OVC015 08/08 A2995 RMK AO2
KBNW 200255Z AUTO 34013G19KT 4SM BR SCT008 BKN013 OVC030 08/08 A2994 RMK AO2